createdAt,value
2022-09-26T00:03:23.443Z,165.58273
2022-09-26T00:08:24.367Z,166.38267
2022-09-26T00:13:25.401Z,166.38267
2022-09-26T00:18:26.271Z,165.58273
2022-09-26T00:23:27.185Z,166.38267
2022-09-26T00:28:28.098Z,167.18841
2022-09-26T00:33:29.007Z,167.18841
2022-09-26T00:38:30.017Z,167.18841
2022-09-26T00:43:30.958Z,167.18841
2022-09-26T00:48:31.897Z,168.0
2022-09-26T00:53:32.881Z,168.0
2022-09-26T00:58:33.809Z,168.0
2022-09-26T01:03:34.742Z,168.0
2022-09-26T01:08:35.648Z,168.0
2022-09-26T01:13:36.732Z,168.0
2022-09-26T01:18:37.707Z,167.18841
2022-09-26T01:23:38.632Z,168.0
2022-09-26T01:28:39.899Z,168.0
2022-09-26T01:33:40.832Z,167.18841
2022-09-26T01:38:41.743Z,167.18841
2022-09-26T01:43:42.662Z,167.18841
2022-09-26T01:48:43.568Z,167.18841
2022-09-26T01:53:44.492Z,168.0
2022-09-26T01:58:45.475Z,168.0
2022-09-26T02:03:46.438Z,168.81752
2022-09-26T02:08:47.368Z,168.81752
2022-09-26T02:13:48.351Z,168.0
2022-09-26T02:18:49.249Z,169.64103
2022-09-26T02:23:50.193Z,168.81752
2022-09-26T02:28:51.090Z,168.0
2022-09-26T02:33:52.016Z,168.81752
2022-09-26T02:38:53.002Z,168.81752
2022-09-26T02:43:53.938Z,168.81752
2022-09-26T02:48:54.873Z,168.0
2022-09-26T02:53:55.778Z,167.18841
2022-09-26T02:58:56.684Z,167.18841
2022-09-26T03:03:57.637Z,167.18841
2022-09-26T03:08:58.537Z,167.18841
2022-09-26T03:13:59.468Z,167.18841
2022-09-26T03:19:00.538Z,166.38267
2022-09-26T03:24:01.534Z,167.18841
2022-09-26T03:29:02.454Z,167.18841
2022-09-26T03:34:03.411Z,168.0
2022-09-26T03:39:04.409Z,168.0
2022-09-26T03:44:05.342Z,169.64103
2022-09-26T03:49:06.263Z,168.0
2022-09-26T03:54:07.211Z,168.0
2022-09-26T03:59:08.173Z,168.0
2022-09-26T04:04:09.130Z,168.0
2022-09-26T04:09:13.221Z,168.0
2022-09-26T04:14:17.657Z,167.18841
2022-09-26T04:19:18.599Z,167.18841
2022-09-26T04:24:19.522Z,168.0
2022-09-26T04:29:20.439Z,167.18841
2022-09-26T04:34:26.292Z,166.38267
2022-09-26T04:39:28.131Z,166.38267
2022-09-26T04:44:29.088Z,166.38267
2022-09-26T04:49:30.013Z,166.38267
2022-09-26T04:54:30.933Z,167.18841
2022-09-26T04:59:31.845Z,167.18841
2022-09-26T05:04:32.785Z,168.0
2022-09-26T05:09:36.062Z,166.38267
2022-09-26T05:14:37.456Z,167.18841
2022-09-26T05:19:38.388Z,167.18841
2022-09-26T05:24:39.389Z,168.0
2022-09-26T05:29:40.677Z,167.18841
2022-09-26T05:34:41.647Z,167.18841
2022-09-26T05:44:43.099Z,165.58273
2022-09-26T05:49:44.136Z,164.78853
2022-09-26T05:59:45.694Z,164.78853
2022-09-26T06:04:46.643Z,164.0
2022-09-26T06:09:47.558Z,163.21708
2022-09-26T06:14:48.495Z,163.21708
2022-09-26T06:19:49.461Z,162.43972
2022-09-26T06:24:50.408Z,162.43972
2022-09-26T06:29:51.399Z,163.21708
2022-09-26T06:34:52.359Z,164.0
2022-09-26T06:39:58.488Z,162.43972
2022-09-26T06:45:00.251Z,162.43972
2022-09-26T06:50:01.306Z,163.21708
2022-09-26T06:55:02.265Z,164.0
2022-09-26T07:00:03.267Z,163.21708
2022-09-26T07:05:04.187Z,164.0
2022-09-26T07:10:05.142Z,162.43972
2022-09-26T07:15:06.257Z,162.43972
2022-09-26T07:20:07.192Z,161.66784
2022-09-26T07:25:08.094Z,161.66784
2022-09-26T07:30:09.061Z,161.66784
2022-09-26T07:35:09.964Z,160.90141
2022-09-26T07:40:10.958Z,159.38462
2022-09-26T07:45:29.658Z,164.78853
2022-09-26T07:50:31.211Z,165.58273
2022-09-26T07:55:32.163Z,164.0
2022-09-26T08:00:33.077Z,164.78853
2022-09-26T08:05:33.992Z,164.78853
2022-09-26T08:10:34.920Z,166.38267
2022-09-26T08:15:35.883Z,163.21708
2022-09-26T08:20:36.807Z,166.38267
2022-09-26T08:25:37.742Z,165.58273
2022-09-26T08:30:38.693Z,168.81752
2022-09-26T08:35:39.682Z,170.47059
2022-09-26T08:40:40.971Z,168.0
2022-09-26T08:45:45.321Z,167.18841
2022-09-26T08:50:48.643Z,164.78853
2022-09-26T08:55:49.566Z,163.21708
2022-09-26T09:00:50.474Z,165.58273
2022-09-26T09:05:51.392Z,170.47059
2022-09-26T09:10:52.323Z,167.18841
2022-09-26T09:15:53.305Z,167.18841
2022-09-26T09:20:54.289Z,168.81752
2022-09-26T09:25:55.325Z,168.81752
2022-09-26T09:30:56.316Z,169.64103
2022-09-26T09:35:57.295Z,166.38267
2022-09-26T09:40:58.301Z,170.47059
2022-09-26T09:45:59.294Z,171.30627
2022-09-26T09:51:00.222Z,162.43972
2022-09-26T09:56:01.398Z,161.66784
2022-09-26T10:01:02.520Z,159.38462
2022-09-26T10:06:03.437Z,158.63415
2022-09-26T10:11:04.364Z,164.0
2022-09-26T10:16:05.421Z,164.78853
2022-09-26T10:21:06.402Z,167.18841
2022-09-26T10:26:07.324Z,160.14035
2022-09-26T10:31:08.336Z,157.88889
2022-09-26T10:36:09.358Z,157.14879
2022-09-26T10:41:10.305Z,161.66784
2022-09-26T10:46:11.299Z,163.21708
2022-09-26T10:51:12.264Z,163.21708
2022-09-26T10:56:13.186Z,164.0
2022-09-26T11:01:14.175Z,167.18841
2022-09-26T11:06:15.147Z,167.18841
2022-09-26T11:11:16.078Z,167.18841
2022-09-26T11:16:17.106Z,169.64103
2022-09-26T11:21:28.320Z,168.81752
2022-09-26T11:26:30.032Z,171.30627
2022-09-26T11:42:36.596Z,175.57895
2022-09-26T11:47:37.572Z,172.99628
2022-09-26T11:52:38.538Z,171.30627
2022-09-26T11:57:39.445Z,168.0
2022-09-26T12:02:40.727Z,165.58273
2022-09-26T12:07:42.117Z,164.78853
2022-09-26T12:12:43.035Z,172.99628
2022-09-26T12:17:43.958Z,174.71161
2022-09-26T12:22:45.298Z,171.30627
2022-09-26T12:27:46.234Z,169.64103
2022-09-26T12:32:47.187Z,174.71161
2022-09-26T12:37:48.086Z,172.14815
2022-09-26T12:42:49.094Z,170.47059
2022-09-26T12:47:50.117Z,174.71161
2022-09-26T12:52:51.078Z,172.99628
2022-09-26T12:57:51.992Z,172.14815
2022-09-26T13:02:53.016Z,170.47059
2022-09-26T13:07:54.019Z,168.81752
2022-09-26T13:12:54.942Z,170.47059
2022-09-26T13:17:55.904Z,167.18841
2022-09-26T13:22:56.845Z,167.18841
2022-09-26T13:27:57.764Z,168.0
2022-09-26T13:32:58.691Z,169.64103
2022-09-26T13:38:02.993Z,172.99628
2022-09-26T13:43:06.191Z,167.18841
2022-09-26T13:48:07.133Z,168.81752
2022-09-26T13:53:08.105Z,167.18841
2022-09-26T13:58:09.011Z,164.78853
2022-09-26T14:03:10.014Z,165.58273
2022-09-26T14:08:11.144Z,167.18841
2022-09-26T14:13:12.055Z,167.18841
2022-09-26T14:18:13.006Z,168.0
2022-09-26T14:23:13.939Z,168.0
2022-09-26T14:28:14.851Z,168.81752
2022-09-26T14:33:15.794Z,171.30627
2022-09-26T14:38:16.791Z,169.64103
2022-09-26T14:43:17.748Z,173.85075
2022-09-26T14:48:18.684Z,172.99628
2022-09-26T14:53:19.727Z,174.71161
2022-09-26T14:58:20.735Z,176.45283
2022-09-26T15:03:21.770Z,172.14815
2022-09-26T15:08:22.866Z,169.64103
2022-09-26T15:13:23.781Z,173.85075
2022-09-26T15:18:24.805Z,171.30627
2022-09-26T15:23:25.863Z,169.64103
2022-09-26T15:28:26.904Z,173.85075
2022-09-26T15:33:27.850Z,173.85075
2022-09-26T15:38:28.839Z,174.71161
2022-09-26T15:43:29.773Z,172.99628
2022-09-26T15:48:30.717Z,173.85075
2022-09-26T15:53:31.835Z,174.71161
2022-09-26T15:58:32.754Z,174.71161
2022-09-26T16:03:33.711Z,172.99628
2022-09-26T16:08:34.617Z,172.99628
2022-09-26T16:13:35.531Z,171.30627
2022-09-26T16:18:36.490Z,169.64103
2022-09-26T16:23:37.386Z,169.64103
2022-09-26T16:28:38.324Z,168.81752
2022-09-26T16:33:39.269Z,168.81752
2022-09-26T16:38:40.260Z,168.0
2022-09-26T16:43:41.359Z,168.0
2022-09-26T16:48:42.440Z,167.18841
2022-09-26T16:53:43.362Z,167.18841
2022-09-26T16:58:44.304Z,167.18841
2022-09-26T17:03:45.273Z,167.18841
2022-09-26T17:08:46.481Z,169.64103
2022-09-26T17:13:47.407Z,168.81752
2022-09-26T17:18:48.396Z,171.30627
2022-09-26T17:23:49.480Z,170.47059
2022-09-26T17:28:50.421Z,169.64103
2022-09-26T17:33:51.385Z,169.64103
2022-09-26T17:38:52.394Z,169.64103
2022-09-26T17:43:53.341Z,169.64103
2022-09-26T17:48:54.428Z,169.64103
2022-09-26T17:53:55.360Z,169.64103
2022-09-26T17:58:56.297Z,169.64103
2022-09-26T18:03:57.390Z,169.64103
2022-09-26T18:08:58.437Z,169.64103
2022-09-26T18:13:59.638Z,169.64103
2022-09-26T18:19:06.057Z,168.81752
2022-09-26T18:24:08.371Z,168.81752
2022-09-26T18:29:09.444Z,168.81752
2022-09-26T18:34:10.530Z,169.64103
2022-09-26T18:39:11.602Z,170.47059
2022-09-26T18:44:12.707Z,172.14815
2022-09-26T18:49:13.768Z,172.99628
2022-09-26T18:54:15.043Z,172.99628
2022-09-26T18:59:16.313Z,173.85075
2022-09-26T19:04:17.266Z,173.85075
2022-09-26T19:09:18.341Z,173.85075
2022-09-26T19:14:19.395Z,172.99628
2022-09-26T19:19:20.426Z,172.99628
2022-09-26T19:24:21.421Z,172.99628
2022-09-26T19:29:22.932Z,172.99628
2022-09-26T19:34:24.026Z,172.99628
2022-09-26T19:39:25.193Z,173.85075
2022-09-26T19:44:26.213Z,173.85075
2022-09-26T19:49:27.234Z,174.71161
2022-09-26T19:54:28.294Z,174.71161
2022-09-26T19:59:29.748Z,174.71161
2022-09-26T20:04:30.680Z,174.71161
2022-09-26T20:09:31.696Z,175.57895
2022-09-26T20:14:32.629Z,174.71161
2022-09-26T20:19:33.714Z,174.71161
2022-09-26T20:24:34.706Z,174.71161
2022-09-26T20:29:35.700Z,174.71161
2022-09-26T20:34:36.763Z,174.71161
2022-09-26T20:39:37.851Z,173.85075
2022-09-26T20:44:38.761Z,172.99628
2022-09-26T20:49:39.711Z,172.99628
2022-09-26T20:54:40.837Z,172.99628
2022-09-26T20:59:42.121Z,172.99628
2022-09-26T21:04:43.031Z,172.14815
2022-09-26T21:09:43.934Z,172.99628
2022-09-26T21:14:44.872Z,173.85075
2022-09-26T21:19:45.857Z,173.85075
2022-09-26T21:24:46.785Z,174.71161
2022-09-26T21:29:47.723Z,173.85075
2022-09-26T21:34:48.654Z,174.71161
2022-09-26T21:39:49.566Z,174.71161
2022-09-26T21:44:50.552Z,174.71161
2022-09-26T21:49:51.505Z,174.71161
2022-09-26T21:54:52.524Z,173.85075
2022-09-26T21:59:53.449Z,173.85075
2022-09-26T22:04:54.365Z,174.71161
2022-09-26T22:09:55.261Z,174.71161
2022-09-26T22:14:56.193Z,174.71161
2022-09-26T22:19:57.129Z,173.85075
2022-09-26T22:24:58.039Z,173.85075
2022-09-26T22:29:58.984Z,173.85075
2022-09-26T22:34:59.913Z,173.85075
2022-09-26T22:40:00.795Z,173.85075
2022-09-26T22:45:01.794Z,173.85075
2022-09-26T22:50:02.700Z,172.99628
2022-09-26T22:55:03.600Z,172.99628
2022-09-26T23:00:04.557Z,172.99628
2022-09-26T23:05:05.498Z,172.99628
2022-09-26T23:10:06.467Z,172.14815
2022-09-26T23:15:07.365Z,172.99628
2022-09-26T23:20:08.305Z,172.99628
2022-09-26T23:25:09.254Z,172.99628
2022-09-26T23:30:10.150Z,172.99628
2022-09-26T23:35:11.197Z,172.99628
2022-09-26T23:40:12.305Z,172.14815
2022-09-26T23:45:13.370Z,172.99628
2022-09-26T23:50:14.351Z,172.99628
2022-09-26T23:55:15.297Z,172.99628
